Time;durP1;ratioP1;P1;durP2;ratioP2;P2;SDS_P1;SDS_P2;PMS_P1;PMS_P2;Temp;Humidity;BMP_temperature;BMP_pressure;BME280_temperature;BME280_humidity;BME280_pressure;Samples;Min_cycle;Max_cycle;Signal;HPM_P1;HPM_P2
2022/08/13 00:01:40;;;;;;;;;;;;;;;21.56;84.84;99177.86;1691281;82;20215;-68
2022/08/13 00:04:09;;;;;;;;;;;;;;;21.50;84.96;99168.84;1690143;82;20438;-69
2022/08/13 00:09:07;;;;;;;;;;;;;;;21.43;85.37;99170.09;1689610;83;21345;-70
2022/08/13 00:14:24;;;;;;;;;;;;;;;21.40;85.57;99182.20;1713816;82;20095;-68
2022/08/13 00:16:49;;;;;;;;;;;;;;;21.41;85.74;99199.25;1703337;82;20111;-68
2022/08/13 00:19:16;;;;;;;;;;;;;;;21.41;85.77;99197.91;1712495;83;20100;-67
2022/08/13 00:21:42;;;;;;;;;;;;;;;21.39;85.83;99202.22;1714314;83;21192;-68
2022/08/13 00:24:09;;;;;;;;;;;;;;;21.39;85.84;99195.98;1692906;83;20491;-70
2022/08/13 00:26:35;;;;;;;;;;;;;;;21.39;85.86;99190.58;1706837;83;20134;-71
2022/08/13 00:29:02;;;;;;;;;;;;;;;21.39;85.89;99184.64;1699975;82;20165;-70
2022/08/13 00:31:28;;;;;;;;;;;;;;;21.41;85.77;99191.14;1725354;81;20121;-69
2022/08/13 00:33:58;;;;;;;;;;;;;;;21.42;85.79;99191.44;1736900;82;21838;-70
2022/08/13 00:36:24;;;;;;;;;;;;;;;21.41;85.80;99185.20;1753000;80;20522;-67
2022/08/13 00:38:52;;;;;;;;;;;;;;;21.40;85.86;99180.05;1736032;82;20087;-68
2022/08/13 00:44:05;;;;;;;;;;;;;;;21.47;85.83;99175.28;1731227;80;20071;-69
2022/08/13 00:46:33;;;;;;;;;;;;;;;21.49;85.79;99173.13;1738588;80;21138;-70
2022/08/13 00:49:03;;;;;;;;;;;;;;;21.51;85.68;99173.70;1745555;80;20095;-69
2022/08/13 00:51:27;;;;;;;;;;;;;;;21.53;85.62;99177.80;1749403;80;20116;-70
2022/08/13 00:53:54;;;;;;;;;;;;;;;21.57;85.50;99186.25;1737324;80;20710;-69
2022/08/13 00:56:24;;;;;;;;;;;;;;;21.62;85.29;99187.67;1744400;82;20140;-68
2022/08/13 00:58:51;;;;;;;;;;;;;;;21.64;85.13;99182.03;1740859;80;21810;-69
2022/08/13 01:01:22;;;;;;;;;;;;;;;21.63;85.03;99173.09;1734331;80;20118;-69
2022/08/13 01:03:45;;;;;;;;;;;;;;;21.66;85.01;99171.77;1729324;80;20115;-69
2022/08/13 01:06:11;;;;;;;;;;;;;;;21.65;84.88;99165.53;1736142;80;20160;-69
2022/08/13 01:08:41;;;;;;;;;;;;;;;21.67;84.79;99159.85;1731029;80;20447;-69
2022/08/13 01:11:09;;;;;;;;;;;;;;;21.70;84.72;99166.12;1752151;80;21170;-67
2022/08/13 01:13:36;;;;;;;;;;;;;;;21.69;84.68;99159.89;1736181;80;20156;-68
2022/08/13 01:16:06;;;;;;;;;;;;;;;21.71;84.63;99161.02;1751014;80;20431;-68
2022/08/13 01:18:36;;;;;;;;;;;;;;;21.73;84.40;99161.57;1747138;80;20086;-67
2022/08/13 01:21:19;;;;;;;;;;;;;;;21.70;84.41;99158.83;1737886;80;20387;-68
2022/08/13 01:23:48;;;;;;;;;;;;;;;21.68;84.47;99154.20;1729053;82;21133;-67
2022/08/13 01:26:15;;;;;;;;;;;;;;;21.69;84.52;99149.06;1742235;80;20420;-68
2022/08/13 01:28:43;;;;;;;;;;;;;;;21.72;84.41;99144.50;1739370;80;21082;-67
2022/08/13 01:31:10;;;;;;;;;;;;;;;21.72;84.34;99141.00;1723297;81;20141;-67
2022/08/13 01:33:36;;;;;;;;;;;;;;;21.72;84.37;99132.88;1698290;82;20152;-68
2022/08/13 01:36:04;;;;;;;;;;;;;;;21.74;84.29;99125.33;1700803;83;21139;-68
2022/08/13 01:38:30;;;;;;;;;;;;;;;21.74;84.17;99113.97;1700629;82;20102;-70
2022/08/13 01:40:57;;;;;;;;;;;;;;;21.77;84.12;99118.85;1698774;83;20438;-68
2022/08/13 01:43:28;;;;;;;;;;;;;;;21.81;84.01;99115.94;1706956;82;20143;-70
2022/08/13 01:45:52;;;;;;;;;;;;;;;21.86;83.81;99112.50;1714244;82;20096;-70
2022/08/13 01:51:08;;;;;;;;;;;;;;;21.92;83.48;99114.22;1687125;83;20117;-69
2022/08/13 01:53:35;;;;;;;;;;;;;;;21.94;83.29;99104.77;1686731;83;20114;-68
2022/08/13 01:56:03;;;;;;;;;;;;;;;21.96;83.10;99107.20;1696564;82;20116;-68
2022/08/13 01:58:30;;;;;;;;;;;;;;;21.98;83.00;99114.54;1707741;82;20142;-67
2022/08/13 02:00:59;;;;;;;;;;;;;;;22.00;82.85;99109.16;1711804;82;21141;-67
2022/08/13 02:03:25;;;;;;;;;;;;;;;21.96;82.84;99117.52;1713896;83;20123;-66
2022/08/13 02:05:52;;;;;;;;;;;;;;;21.93;82.87;99113.95;1714348;83;20088;-69
2022/08/13 02:08:20;;;;;;;;;;;;;;;21.90;82.93;99110.95;1699022;83;20085;-69
2022/08/13 02:10:47;;;;;;;;;;;;;;;21.90;82.97;99106.89;1703679;83;20197;-69
2022/08/13 02:13:19;;;;;;;;;;;;;;;21.90;82.95;99104.97;1713718;83;21024;-68
2022/08/13 02:15:46;;;;;;;;;;;;;;;21.94;82.87;99100.70;1707819;82;20084;-69
2022/08/13 02:18:17;;;;;;;;;;;;;;;21.93;82.85;99103.12;1706840;83;20135;-68
2022/08/13 02:20:44;;;;;;;;;;;;;;;21.94;82.79;99096.64;1714252;82;20548;-68
2022/08/13 02:23:10;;;;;;;;;;;;;;;21.94;82.88;99105.30;1710807;83;20088;-68
2022/08/13 02:25:37;;;;;;;;;;;;;;;21.92;82.82;99110.98;1684364;83;20534;-68
2022/08/13 02:28:04;;;;;;;;;;;;;;;21.84;83.07;99114.09;1702255;82;20086;-70
2022/08/13 02:30:32;;;;;;;;;;;;;;;21.80;83.28;99115.65;1720428;82;20392;-68
2022/08/13 02:32:59;;;;;;;;;;;;;;;21.78;83.52;99134.56;1737063;82;20166;-68
2022/08/13 02:35:28;;;;;;;;;;;;;;;21.77;83.67;99133.74;1744122;81;20143;-71
2022/08/13 02:37:54;;;;;;;;;;;;;;;21.77;83.73;99128.33;1735062;82;21859;-69
2022/08/13 02:43:05;;;;;;;;;;;;;;;21.81;83.58;99136.78;1724367;82;20137;-69
2022/08/13 02:45:31;;;;;;;;;;;;;;;21.76;83.50;99135.36;1723579;82;20725;-69
2022/08/13 02:47:58;;;;;;;;;;;;;;;21.69;83.77;99136.88;1733579;82;20149;-69
2022/08/13 02:50:24;;;;;;;;;;;;;;;21.67;83.83;99143.08;1739794;82;21151;-70
2022/08/13 02:52:52;;;;;;;;;;;;;;;21.67;83.93;99144.97;1720903;82;20109;-70
2022/08/13 02:55:20;;;;;;;;;;;;;;;21.67;83.97;99140.91;1749112;81;20097;-68
2022/08/13 02:57:47;;;;;;;;;;;;;;;21.66;83.92;99136.58;1748204;81;20119;-67
2022/08/13 03:00:15;;;;;;;;;;;;;;;21.66;83.98;99138.76;1754188;81;20157;-72
2022/08/13 03:02:44;;;;;;;;;;;;;;;21.65;83.97;99136.28;1747773;82;21167;-69
2022/08/13 03:05:12;;;;;;;;;;;;;;;21.65;83.99;99145.75;1747531;81;20119;-69
2022/08/13 03:07:40;;;;;;;;;;;;;;;21.62;83.96;99150.31;1754992;80;20114;-70
2022/08/13 03:10:11;;;;;;;;;;;;;;;21.59;83.97;99151.62;1746967;81;20075;-68
2022/08/13 03:12:53;;;;;;;;;;;;;;;21.56;84.08;99154.03;1751742;81;20115;-69
2022/08/13 03:15:19;;;;;;;;;;;;;;;21.50;84.16;99158.02;1747633;81;22055;-69
2022/08/13 03:17:45;;;;;;;;;;;;;;;21.46;84.46;99167.69;1751167;81;20119;-71
2022/08/13 03:20:16;;;;;;;;;;;;;;;21.48;84.59;99172.87;1747627;82;20095;-69
2022/08/13 03:22:51;;;;;;;;;;;;;;;21.49;84.67;99165.02;1747541;81;20095;-69
2022/08/13 03:25:19;;;;;;;;;;;;;;;21.49;84.81;99167.72;1725134;82;20170;-70
2022/08/13 03:27:45;;;;;;;;;;;;;;;21.55;84.87;99178.92;1741187;82;21899;-70
2022/08/13 03:30:14;;;;;;;;;;;;;;;21.60;84.83;99173.58;1747377;81;20148;-69
2022/08/13 03:32:42;;;;;;;;;;;;;;;21.61;84.71;99173.88;1747631;81;20071;-70
2022/08/13 03:35:11;;;;;;;;;;;;;;;21.64;84.70;99180.13;1726052;81;20165;-70
2022/08/13 03:37:38;;;;;;;;;;;;;;;21.65;84.52;99175.00;1747498;82;20424;-70
2022/08/13 03:40:06;;;;;;;;;;;;;;;21.64;84.70;99172.56;1747543;82;21918;-70
2022/08/13 03:42:32;;;;;;;;;;;;;;;21.62;84.58;99167.38;1747396;82;20102;-70
2022/08/13 03:44:59;;;;;;;;;;;;;;;21.57;84.71;99159.71;1740733;82;20445;-70
2022/08/13 03:47:25;;;;;;;;;;;;;;;21.54;84.81;99163.20;1748308;81;20187;-70
2022/08/13 03:49:51;;;;;;;;;;;;;;;21.57;84.80;99157.01;1747694;81;20094;-69
2022/08/13 03:52:18;;;;;;;;;;;;;;;21.59;84.78;99146.77;1747475;82;21145;-69
2022/08/13 03:54:44;;;;;;;;;;;;;;;21.59;84.77;99137.30;1733644;81;20129;-70
2022/08/13 03:57:11;;;;;;;;;;;;;;;21.59;84.80;99150.27;1737497;82;20370;-69
2022/08/13 03:59:38;;;;;;;;;;;;;;;21.59;84.67;99152.98;1724162;82;20480;-70
2022/08/13 04:02:06;;;;;;;;;;;;;;;21.59;84.58;99148.13;1720743;82;20466;-70
2022/08/13 04:04:33;;;;;;;;;;;;;;;21.60;84.50;99144.34;1725069;82;21177;-69
2022/08/13 04:07:00;;;;;;;;;;;;;;;21.61;84.57;99157.64;1732913;82;20105;-68
2022/08/13 04:09:26;;;;;;;;;;;;;;;21.65;84.77;99158.77;1742950;82;20091;-68
2022/08/13 04:11:53;;;;;;;;;;;;;;;21.71;84.74;99138.83;1745565;82;20095;-69
2022/08/13 04:14:19;;;;;;;;;;;;;;;21.76;84.55;99130.77;1744868;82;20095;-69
2022/08/13 04:16:45;;;;;;;;;;;;;;;21.81;84.20;99140.84;1727438;82;21156;-69
2022/08/13 04:19:11;;;;;;;;;;;;;;;21.85;84.08;99157.68;1727423;82;20517;-69
2022/08/13 04:21:38;;;;;;;;;;;;;;;21.89;84.00;99178.34;1722645;82;20077;-69
2022/08/13 04:24:05;;;;;;;;;;;;;;;21.94;83.84;99195.48;1736016;82;20111;-69
2022/08/13 04:26:32;;;;;;;;;;;;;;;22.00;83.72;99203.15;1732151;81;20148;-68
2022/08/13 04:29:04;;;;;;;;;;;;;;;22.03;83.49;99204.80;1750148;80;21141;-69
2022/08/13 04:31:31;;;;;;;;;;;;;;;22.01;83.34;99192.05;1739216;82;20179;-71
2022/08/13 04:33:57;;;;;;;;;;;;;;;22.02;83.42;99194.23;1741238;82;20085;-70
2022/08/13 04:36:24;;;;;;;;;;;;;;;22.07;83.28;99178.87;1729216;82;20085;-69
2022/08/13 04:38:50;;;;;;;;;;;;;;;22.12;83.15;99201.13;1744236;82;20142;-67
2022/08/13 04:41:16;;;;;;;;;;;;;;;22.16;83.05;99209.59;1742176;82;21144;-68
2022/08/13 04:43:43;;;;;;;;;;;;;;;22.18;83.12;99192.01;1742548;82;20111;-68
2022/08/13 04:46:10;;;;;;;;;;;;;;;22.25;82.99;99191.27;1745457;80;20162;-68
2022/08/13 04:48:36;;;;;;;;;;;;;;;22.31;82.93;99204.35;1745097;80;20436;-69
2022/08/13 04:51:03;;;;;;;;;;;;;;;22.34;82.80;99217.40;1735480;81;20113;-68
2022/08/13 04:53:32;;;;;;;;;;;;;;;22.26;82.42;99231.39;1745046;80;21185;-68
2022/08/13 04:55:59;;;;;;;;;;;;;;;22.17;82.68;99236.94;1735643;80;20208;-69
2022/08/13 04:58:32;;;;;;;;;;;;;;;22.07;82.81;99214.61;1743458;81;20217;-68
2022/08/13 05:00:56;;;;;;;;;;;;;;;22.02;83.12;99157.67;1742485;80;20118;-67
2022/08/13 05:03:22;;;;;;;;;;;;;;;21.99;83.20;99154.11;1740035;82;20082;-68
2022/08/13 05:05:51;;;;;;;;;;;;;;;21.94;83.61;99175.17;1744725;81;21140;-72
2022/08/13 05:08:18;;;;;;;;;;;;;;;21.97;83.74;99148.95;1748869;80;20076;-68
2022/08/13 05:10:46;;;;;;;;;;;;;;;21.99;84.02;99140.56;1728837;82;20443;-67
2022/08/13 05:13:21;;;;;;;;;;;;;;;21.96;84.69;99147.30;1740708;82;20089;-70
2022/08/13 05:15:49;;;;;;;;;;;;;;;21.95;85.12;99156.48;1746391;80;20196;-69
2022/08/13 05:18:16;;;;;;;;;;;;;;;21.98;85.24;99157.34;1732613;80;21154;-70
2022/08/13 05:20:42;;;;;;;;;;;;;;;22.03;85.15;99158.76;1746600;80;20105;-72
2022/08/13 05:23:09;;;;;;;;;;;;;;;22.06;85.11;99163.67;1745513;80;20094;-68
2022/08/13 05:25:36;;;;;;;;;;;;;;;22.09;84.99;99163.17;1754434;80;20134;-69
2022/08/13 05:28:03;;;;;;;;;;;;;;;22.11;84.86;99146.13;1736917;80;20453;-69
2022/08/13 05:30:29;;;;;;;;;;;;;;;22.09;84.91;99107.65;1745942;80;21159;-69
2022/08/13 05:32:58;;;;;;;;;;;;;;;22.08;85.12;99092.45;1728050;80;20121;-70
2022/08/13 05:35:25;;;;;;;;;;;;;;;22.07;85.34;99092.20;1748328;82;20131;-70
2022/08/13 05:37:52;;;;;;;;;;;;;;;22.11;85.48;99106.86;1746552;80;20120;-74
2022/08/13 05:40:18;;;;;;;;;;;;;;;22.14;85.21;99116.36;1738490;82;20123;-72
2022/08/13 05:42:45;;;;;;;;;;;;;;;22.17;85.26;99106.91;1750172;80;21308;-75
2022/08/13 05:45:11;;;;;;;;;;;;;;;22.19;85.32;99116.98;1753966;82;20173;-73
2022/08/13 05:47:38;;;;;;;;;;;;;;;22.24;85.35;99115.68;1753920;80;20119;-72
2022/08/13 05:50:13;;;;;;;;;;;;;;;22.31;85.18;99119.00;1744964;80;20458;-74
2022/08/13 05:52:36;;;;;;;;;;;;;;;22.38;85.08;99105.53;1745641;80;20119;-75
2022/08/13 05:55:07;;;;;;;;;;;;;;;22.42;84.90;99092.30;1754690;82;21784;-74
2022/08/13 05:57:33;;;;;;;;;;;;;;;22.50;84.73;99083.14;1753256;81;20087;-74
2022/08/13 06:05:29;;;;;;;;;;;;;;;22.67;84.03;99087.14;1733050;80;20446;-73
2022/08/13 06:07:57;;;;;;;;;;;;;;;22.70;83.80;99086.09;1754099;80;21525;-76
2022/08/13 06:10:24;;;;;;;;;;;;;;;22.72;83.46;99078.52;1725139;82;20110;-74
2022/08/13 06:12:50;;;;;;;;;;;;;;;22.76;83.32;99080.15;1732306;80;20172;-74
2022/08/13 06:15:22;;;;;;;;;;;;;;;22.80;83.28;99074.50;1742269;82;20081;-77
2022/08/13 06:17:47;;;;;;;;;;;;;;;22.88;83.17;99077.27;1727637;82;20630;-74
2022/08/13 06:20:13;;;;;;;;;;;;;;;22.96;82.92;99078.98;1753865;80;21198;-74
2022/08/13 06:22:40;;;;;;;;;;;;;;;23.02;82.64;99079.27;1752494;80;20257;-73
2022/08/13 06:25:07;;;;;;;;;;;;;;;23.04;82.30;99066.30;1747930;80;20221;-74
2022/08/13 06:27:34;;;;;;;;;;;;;;;23.05;82.11;99063.84;1734233;80;20133;-76
2022/08/13 06:30:01;;;;;;;;;;;;;;;23.04;82.11;99040.52;1744285;80;20217;-76
2022/08/13 06:32:28;;;;;;;;;;;;;;;23.03;81.98;99046.19;1730401;82;21118;-77
2022/08/13 06:34:54;;;;;;;;;;;;;;;23.04;82.04;99062.22;1726264;82;20075;-78
2022/08/13 06:37:22;;;;;;;;;;;;;;;23.07;81.92;99069.81;1744004;82;20119;-76
2022/08/13 06:39:49;;;;;;;;;;;;;;;23.11;81.70;99072.30;1747057;82;20146;-75
2022/08/13 06:42:16;;;;;;;;;;;;;;;23.12;81.56;99071.23;1747027;81;20138;-77
2022/08/13 06:44:44;;;;;;;;;;;;;;;23.13;81.37;99069.31;1747183;82;21118;-74
2022/08/13 06:47:12;;;;;;;;;;;;;;;23.09;81.46;99066.86;1742069;82;20119;-75
2022/08/13 06:49:38;;;;;;;;;;;;;;;23.02;81.56;99068.42;1744960;81;20420;-74
2022/08/13 06:52:05;;;;;;;;;;;;;;;22.98;81.84;99055.12;1736835;82;20135;-74
2022/08/13 06:54:31;;;;;;;;;;;;;;;22.96;81.98;99055.92;1747085;82;20139;-74
2022/08/13 06:56:58;;;;;;;;;;;;;;;22.94;82.11;99055.37;1735889;82;21800;-75
2022/08/13 06:59:25;;;;;;;;;;;;;;;22.92;82.22;99058.86;1738810;82;20469;-77
2022/08/13 07:01:57;;;;;;;;;;;;;;;22.88;82.24;99054.22;1747203;82;20182;-73
2022/08/13 07:04:20;;;;;;;;;;;;;;;22.79;82.48;99062.02;1745399;82;20171;-78
2022/08/13 07:06:49;;;;;;;;;;;;;;;22.78;82.76;99059.04;1747008;82;20574;-74
2022/08/13 07:09:17;;;;;;;;;;;;;;;22.80;82.70;99057.41;1738043;82;21172;-74
2022/08/13 07:11:44;;;;;;;;;;;;;;;22.80;82.63;99051.45;1731934;82;20253;-74
2022/08/13 07:14:13;;;;;;;;;;;;;;;22.74;82.82;99041.11;1736594;82;20432;-78
2022/08/13 07:16:42;;;;;;;;;;;;;;;22.76;82.96;99050.33;1736891;82;20446;-73
2022/08/13 07:19:11;;;;;;;;;;;;;;;22.77;83.06;99048.44;1744240;82;20110;-74
2022/08/13 07:21:37;;;;;;;;;;;;;;;22.77;82.93;99047.91;1737282;82;21802;-75
2022/08/13 07:24:04;;;;;;;;;;;;;;;22.78;83.12;99052.27;1727274;81;20137;-73
2022/08/13 07:26:31;;;;;;;;;;;;;;;22.83;83.22;99054.19;1741015;82;20097;-73
2022/08/13 07:28:58;;;;;;;;;;;;;;;22.88;83.09;99057.76;1739920;82;20071;-75
2022/08/13 07:31:27;;;;;;;;;;;;;;;22.89;83.04;99056.66;1723383;82;20125;-77
2022/08/13 07:33:55;;;;;;;;;;;;;;;22.92;83.06;99052.61;1742141;82;21151;-70
2022/08/13 07:36:23;;;;;;;;;;;;;;;22.96;83.12;99050.50;1732714;82;20418;-73
2022/08/13 07:38:51;;;;;;;;;;;;;;;23.02;82.90;99044.58;1729160;82;20095;-76
2022/08/13 07:41:18;;;;;;;;;;;;;;;23.05;82.57;99046.20;1747743;82;20157;-74
2022/08/13 07:43:44;;;;;;;;;;;;;;;23.05;82.47;99040.78;1747676;81;20098;-73
2022/08/13 07:46:15;;;;;;;;;;;;;;;23.01;82.53;99045.11;1747679;82;21722;-75
2022/08/13 07:48:50;;;;;;;;;;;;;;;23.01;82.65;99036.15;1747710;82;20155;-72
2022/08/13 07:51:19;;;;;;;;;;;;;;;23.04;82.66;99039.16;1746711;82;20083;-73
2022/08/13 07:53:41;;;;;;;;;;;;;;;23.05;82.70;99034.00;1746960;82;20177;-73
2022/08/13 07:56:08;;;;;;;;;;;;;;;23.08;82.98;99045.69;1747625;82;20425;-73
2022/08/13 07:58:35;;;;;;;;;;;;;;;23.17;82.96;99040.59;1747607;82;21207;-73
2022/08/13 08:01:03;;;;;;;;;;;;;;;23.27;82.82;99036.05;1747695;82;20095;-73
2022/08/13 08:03:41;;;;;;;;;;;;;;;23.29;82.47;99029.81;1747722;81;20441;-77
2022/08/13 08:06:12;;;;;;;;;;;;;;;23.35;82.42;99041.52;1747798;81;20083;-76
2022/08/13 08:08:39;;;;;;;;;;;;;;;23.35;82.35;99026.05;1747507;82;20154;-77
2022/08/13 08:11:05;;;;;;;;;;;;;;;23.38;82.31;99033.42;1747754;81;21782;-75
2022/08/13 08:13:32;;;;;;;;;;;;;;;23.35;82.28;99023.34;1747700;82;20099;-73
2022/08/13 08:16:01;;;;;;;;;;;;;;;23.35;82.31;99025.23;1702029;82;20166;-73
2022/08/13 08:18:27;;;;;;;;;;;;;;;23.35;82.27;99026.59;1747762;82;20099;-72
2022/08/13 08:21:04;;;;;;;;;;;;;;;23.35;82.23;99026.59;1747726;81;20461;-73
2022/08/13 08:23:34;;;;;;;;;;;;;;;23.35;82.18;99027.95;1747650;81;21064;-73
2022/08/13 08:26:06;;;;;;;;;;;;;;;23.37;82.37;99029.05;1747562;82;20099;-72
2022/08/13 08:28:31;;;;;;;;;;;;;;;23.48;82.12;99022.08;1725548;82;20097;-75
2022/08/13 08:30:57;;;;;;;;;;;;;;;23.62;81.80;99030.55;1747609;82;20075;-73
2022/08/13 08:33:28;;;;;;;;;;;;;;;23.69;80.96;99019.72;1747675;82;20435;-73
2022/08/13 08:35:54;;;;;;;;;;;;;;;23.72;80.52;99016.48;1746833;82;21152;-74
2022/08/13 08:43:51;;;;;;;;;;;;;;;23.93;78.92;99011.36;1748017;82;20292;-72
2022/08/13 08:46:17;;;;;;;;;;;;;;;23.88;78.55;99007.27;1749037;82;20099;-73
2022/08/13 08:48:44;;;;;;;;;;;;;;;23.85;78.36;99008.37;1729123;81;21102;-75
2022/08/13 08:51:10;;;;;;;;;;;;;;;23.82;78.10;99010.25;1747691;82;20095;-77
2022/08/13 08:53:36;;;;;;;;;;;;;;;23.78;77.78;99005.89;1747667;82;20162;-73
2022/08/13 08:56:04;;;;;;;;;;;;;;;23.80;78.07;98997.48;1747511;82;20436;-73
2022/08/13 08:58:33;;;;;;;;;;;;;;;23.81;77.79;98996.39;1747619;82;20110;-73
2022/08/13 09:00:59;;;;;;;;;;;;;;;23.80;78.00;98993.42;1747682;81;21720;-73
2022/08/13 09:03:27;;;;;;;;;;;;;;;23.83;78.18;98991.50;1747640;82;20151;-73
2022/08/13 09:05:55;;;;;;;;;;;;;;;23.80;77.85;98987.42;1726748;82;20482;-75
2022/08/13 09:08:24;;;;;;;;;;;;;;;23.78;77.71;98989.59;1747569;82;20820;-74
2022/08/13 09:10:52;;;;;;;;;;;;;;;23.74;77.47;98989.05;1747613;81;20098;-73
2022/08/13 09:13:19;;;;;;;;;;;;;;;23.71;77.64;98980.89;1747360;81;21710;-73
2022/08/13 09:15:48;;;;;;;;;;;;;;;23.75;77.65;98978.47;1747520;82;20440;-75
2022/08/13 09:18:16;;;;;;;;;;;;;;;23.74;77.32;98976.83;1729832;82;20082;-75
2022/08/13 09:20:43;;;;;;;;;;;;;;;23.71;77.37;98974.10;1747595;81;20095;-72
2022/08/13 09:23:12;;;;;;;;;;;;;;;23.67;77.51;98970.27;1747722;82;35819;-76
2022/08/13 09:25:43;;;;;;;;;;;;;;;23.69;77.67;98975.45;1747631;81;21117;-77
2022/08/13 09:28:10;;;;;;;;;;;;;;;23.65;77.42;98965.66;1728343;81;20121;-77
2022/08/13 09:30:37;;;;;;;;;;;;;;;23.61;77.07;98963.21;1745258;82;20127;-73
2022/08/13 09:33:04;;;;;;;;;;;;;;;23.56;77.60;98985.45;1728814;81;20116;-76
2022/08/13 09:35:31;;;;;;;;;;;;;;;23.32;78.63;98991.83;1710428;83;20441;-77
2022/08/13 09:37:58;;;;;;;;;;;;;;;22.95;79.10;98997.32;1698443;83;21161;-74
2022/08/13 09:40:28;;;;;;;;;;;;;;;22.62;79.22;98993.53;1714288;83;20087;-77
2022/08/13 09:43:02;;;;;;;;;;;;;;;22.37;79.49;98996.84;1714264;82;20123;-78
2022/08/13 09:45:29;;;;;;;;;;;;;;;22.27;80.29;98991.87;1714340;83;20087;-76
2022/08/13 09:47:56;;;;;;;;;;;;;;;22.24;80.69;98990.48;1714421;83;20095;-74
2022/08/13 09:50:24;;;;;;;;;;;;;;;22.19;80.98;98991.80;1714390;83;21005;-74
2022/08/13 09:52:52;;;;;;;;;;;;;;;22.14;81.24;98991.22;1714175;83;20092;-77
2022/08/13 09:55:22;;;;;;;;;;;;;;;22.10;81.57;98986.58;1714251;83;20433;-76
2022/08/13 09:58:00;;;;;;;;;;;;;;;22.01;81.90;98984.87;1714208;83;20112;-74
2022/08/13 10:00:27;;;;;;;;;;;;;;;21.96;82.49;98982.11;1713928;83;20116;-75
2022/08/13 10:03:00;;;;;;;;;;;;;;;21.92;83.31;99001.84;1714302;83;21723;-76
2022/08/13 10:05:32;;;;;;;;;;;;;;;21.84;83.91;98984.12;1714057;83;20474;-73
2022/08/13 10:07:52;;;;;;;;;;;;;;;21.81;84.46;98995.98;1713355;83;20139;-73
2022/08/13 10:10:19;;;;;;;;;;;;;;;21.80;84.82;98993.81;1714256;82;20128;-73
2022/08/13 10:12:46;;;;;;;;;;;;;;;21.83;84.96;98989.78;1714286;82;20183;-73
2022/08/13 10:15:17;;;;;;;;;;;;;;;21.85;84.81;98980.33;1714253;83;21150;-72
2022/08/13 10:17:55;;;;;;;;;;;;;;;21.88;83.87;98983.92;1713968;82;20083;-73
2022/08/13 10:20:29;;;;;;;;;;;;;;;21.91;83.06;98986.13;1696237;83;20084;-73
2022/08/13 10:22:57;;;;;;;;;;;;;;;21.87;82.78;98999.90;1714343;82;20164;-75
2022/08/13 10:25:25;;;;;;;;;;;;;;;21.83;82.38;98998.73;1713964;83;20167;-74
2022/08/13 10:27:51;;;;;;;;;;;;;;;21.81;82.04;98996.81;1699644;83;21107;-74
2022/08/13 10:30:19;;;;;;;;;;;;;;;21.80;81.88;98991.11;1707890;83;20084;-71
2022/08/13 10:32:46;;;;;;;;;;;;;;;21.77;82.00;98997.02;1714490;81;20124;-75
2022/08/13 10:35:14;;;;;;;;;;;;;;;21.75;82.20;98988.88;1714187;82;20107;-76
2022/08/13 10:37:46;;;;;;;;;;;;;;;21.75;82.55;98993.77;1714315;82;20119;-76
2022/08/13 10:40:15;;;;;;;;;;;;;;;21.74;82.81;98992.67;1713916;83;21767;-72
2022/08/13 10:42:44;;;;;;;;;;;;;;;21.74;83.00;98993.50;1714161;83;20119;-73
2022/08/13 10:45:13;;;;;;;;;;;;;;;21.74;83.30;98999.44;1714446;83;20462;-72
2022/08/13 10:47:49;;;;;;;;;;;;;;;21.77;83.46;98991.61;1714216;82;20208;-73
2022/08/13 10:50:16;;;;;;;;;;;;;;;21.82;83.66;98994.94;1714207;82;20091;-73
2022/08/13 10:52:42;;;;;;;;;;;;;;;21.86;83.94;98992.84;1714185;83;21183;-73
2022/08/13 10:55:12;;;;;;;;;;;;;;;21.94;83.98;98989.67;1714252;83;20088;-73
2022/08/13 10:57:39;;;;;;;;;;;;;;;22.02;83.84;98988.40;1714187;82;20255;-73
2022/08/13 11:00:06;;;;;;;;;;;;;;;22.07;83.79;98989.80;1714319;83;20140;-73
2022/08/13 11:02:33;;;;;;;;;;;;;;;22.16;83.75;98990.16;1714349;83;20084;-73
2022/08/13 11:05:00;;;;;;;;;;;;;;;22.24;83.58;98985.07;1714311;83;21137;-73
2022/08/13 11:07:26;;;;;;;;;;;;;;;22.30;83.22;98984.05;1714122;82;20110;-73
2022/08/13 11:09:53;;;;;;;;;;;;;;;22.35;82.90;98983.27;1714476;83;20158;-74
2022/08/13 11:12:19;;;;;;;;;;;;;;;22.35;82.89;98980.56;1714381;82;20460;-75
2022/08/13 11:14:46;;;;;;;;;;;;;;;22.39;82.88;98978.45;1714458;82;20112;-73
2022/08/13 11:17:17;;;;;;;;;;;;;;;22.47;82.81;98978.52;1714344;83;21132;-74
2022/08/13 11:19:45;;;;;;;;;;;;;;;22.51;82.31;98975.02;1714061;83;20096;-76
2022/08/13 11:22:09;;;;;;;;;;;;;;;22.56;82.12;98978.30;1714286;83;20394;-75
2022/08/13 11:24:35;;;;;;;;;;;;;;;22.60;82.07;98980.78;1714331;83;20371;-74
2022/08/13 11:27:01;;;;;;;;;;;;;;;22.67;81.84;98975.98;1710225;82;20192;-74
2022/08/13 11:29:30;;;;;;;;;;;;;;;22.69;81.58;98973.82;1698307;83;21285;-75
2022/08/13 11:31:57;;;;;;;;;;;;;;;22.72;81.40;98975.48;1714775;83;20478;-78
2022/08/13 11:34:25;;;;;;;;;;;;;;;22.76;81.35;98970.90;1743051;82;20110;-74
2022/08/13 11:36:54;;;;;;;;;;;;;;;22.78;81.05;98980.41;1727453;81;20097;-74
2022/08/13 11:39:20;;;;;;;;;;;;;;;22.80;81.09;98976.89;1727290;82;20440;-74
2022/08/13 11:41:47;;;;;;;;;;;;;;;22.86;80.92;98975.85;1747716;81;21108;-74
2022/08/13 11:44:13;;;;;;;;;;;;;;;22.89;80.89;98967.17;1747655;82;20127;-74
2022/08/13 11:46:40;;;;;;;;;;;;;;;22.93;80.62;98962.88;1747753;82;20080;-74
2022/08/13 11:49:06;;;;;;;;;;;;;;;22.95;80.58;98969.38;1747723;82;20150;-74
2022/08/13 11:51:34;;;;;;;;;;;;;;;22.97;80.49;98962.61;1747746;82;20071;-71
2022/08/13 11:54:00;;;;;;;;;;;;;;;23.00;80.55;98968.87;1747704;82;21247;-71
2022/08/13 11:56:26;;;;;;;;;;;;;;;23.00;80.31;98957.20;1747683;82;20106;-72
2022/08/13 11:58:55;;;;;;;;;;;;;;;23.02;80.32;98962.63;1747643;82;20146;-73
2022/08/13 12:01:22;;;;;;;;;;;;;;;23.05;80.05;98966.72;1747645;81;20303;-73
2022/08/13 12:03:48;;;;;;;;;;;;;;;23.07;80.04;98958.59;1747752;81;20095;-75
2022/08/13 12:06:15;;;;;;;;;;;;;;;23.19;79.94;98964.64;1747650;81;21192;-72
2022/08/13 12:08:41;;;;;;;;;;;;;;;23.37;79.57;98957.14;1747639;82;20103;-73
2022/08/13 12:11:07;;;;;;;;;;;;;;;23.56;79.14;98948.80;1747658;81;20469;-74
2022/08/13 12:13:33;;;;;;;;;;;;;;;23.77;78.34;98950.49;1747815;81;20118;-72
2022/08/13 12:16:00;;;;;;;;;;;;;;;23.93;77.35;98946.73;1747709;81;20095;-74
2022/08/13 12:18:26;;;;;;;;;;;;;;;24.05;77.08;98951.35;1747617;82;21138;-73
2022/08/13 12:20:52;;;;;;;;;;;;;;;24.19;76.45;98941.63;1747598;82;20079;-75
2022/08/13 12:23:19;;;;;;;;;;;;;;;24.25;75.36;98940.52;1747642;81;20119;-73
2022/08/13 12:25:45;;;;;;;;;;;;;;;24.21;74.65;98938.62;1747644;82;20163;-74
2022/08/13 12:28:17;;;;;;;;;;;;;;;24.12;74.40;98938.88;1730665;82;20121;-73
2022/08/13 12:30:44;;;;;;;;;;;;;;;24.01;74.70;98943.48;1721200;82;21144;-73
2022/08/13 12:33:10;;;;;;;;;;;;;;;23.90;75.00;98945.91;1745329;82;20095;-74
2022/08/13 12:35:37;;;;;;;;;;;;;;;23.80;75.46;98940.45;1733363;82;20144;-72
2022/08/13 12:38:07;;;;;;;;;;;;;;;23.72;75.81;98947.23;1742817;82;20132;-71
2022/08/13 12:40:34;;;;;;;;;;;;;;;23.66;76.12;98941.51;1748563;81;20123;-73
2022/08/13 12:43:01;;;;;;;;;;;;;;;23.61;76.33;98939.31;1730343;82;21130;-73
2022/08/13 12:45:27;;;;;;;;;;;;;;;23.52;76.57;98941.72;1734731;81;20122;-74
2022/08/13 12:47:53;;;;;;;;;;;;;;;23.48;76.78;98934.39;1747172;82;20132;-74
2022/08/13 12:50:19;;;;;;;;;;;;;;;23.42;77.03;98934.91;1747515;82;20122;-74
2022/08/13 12:52:46;;;;;;;;;;;;;;;23.39;77.16;98940.07;1739630;82;20178;-74
2022/08/13 12:55:13;;;;;;;;;;;;;;;23.31;77.40;98932.66;1737099;82;21157;-71
2022/08/13 12:57:40;;;;;;;;;;;;;;;23.24;77.83;98933.45;1747916;82;20099;-73
2022/08/13 13:00:09;;;;;;;;;;;;;;;23.23;78.12;98929.66;1747117;82;20226;-73
2022/08/13 13:02:36;;;;;;;;;;;;;;;23.18;78.43;98928.26;1734659;81;20543;-73
2022/08/13 13:05:03;;;;;;;;;;;;;;;23.16;78.79;98922.29;1747247;81;20222;-73
2022/08/13 13:07:29;;;;;;;;;;;;;;;23.12;79.02;98926.09;1727040;81;21151;-75
2022/08/13 13:09:59;;;;;;;;;;;;;;;23.08;79.15;98919.55;1747126;81;20182;-73
2022/08/13 13:12:28;;;;;;;;;;;;;;;23.05;79.54;98917.35;1732166;82;20503;-73
2022/08/13 13:14:54;;;;;;;;;;;;;;;23.03;79.80;98922.77;1743988;82;20095;-74